Time;durP1;ratioP1;P1;durP2;ratioP2;P2;SDS_P1;SDS_P2;PMS_P1;PMS_P2;Temp;Humidity;BMP_temperature;BMP_pressure;BME280_temperature;BME280_humidity;BME280_pressure;Samples;Min_cycle;Max_cycle;Signal;HPM_P1;HPM_P2
2021/12/18 00:01:05;;;;;;;48.60;19.45;;;;;;;0.85;100.00;98525.47;4925973;28;20067;-70
2021/12/18 00:03:31;;;;;;;52.33;20.13;;;;;;;0.85;100.00;98524.66;4924729;29;20039;-69
2021/12/18 00:05:57;;;;;;;51.97;19.92;;;;;;;0.84;100.00;98533.81;4935341;28;20098;-69
2021/12/18 00:08:23;;;;;;;49.35;19.52;;;;;;;0.82;100.00;98525.16;4939281;28;20043;-68
2021/12/18 00:10:49;;;;;;;48.20;19.15;;;;;;;0.85;100.00;98520.06;4935815;28;20083;-68
2021/12/18 00:13:15;;;;;;;48.72;19.33;;;;;;;0.87;100.00;98522.50;4933467;28;20114;-68
2021/12/18 00:15:40;;;;;;;46.17;19.05;;;;;;;0.83;100.00;98521.38;4933388;28;20437;-70
2021/12/18 00:18:06;;;;;;;49.47;19.90;;;;;;;0.82;100.00;98523.28;4934025;29;20035;-68
2021/12/18 00:20:31;;;;;;;49.50;19.67;;;;;;;0.82;100.00;98523.28;4926013;29;20048;-69
2021/12/18 00:22:57;;;;;;;53.60;21.48;;;;;;;0.85;100.00;98521.97;4939318;28;20050;-70
2021/12/18 00:25:23;;;;;;;52.13;21.25;;;;;;;0.87;100.00;98522.50;4932208;28;20614;-67
2021/12/18 00:27:49;;;;;;;45.88;19.70;;;;;;;0.88;100.00;98524.13;4937082;28;20032;-68
2021/12/18 00:30:15;;;;;;;49.00;20.92;;;;;;;0.87;100.00;98527.91;4946492;28;20054;-69
2021/12/18 00:32:41;;;;;;;51.97;21.02;;;;;;;0.84;100.00;98531.91;4943643;29;20046;-69
2021/12/18 00:35:07;;;;;;;45.35;20.35;;;;;;;0.86;100.00;98520.88;4934931;28;20122;-68
2021/12/18 00:37:33;;;;;;;46.70;20.02;;;;;;;0.85;100.00;98519.25;4936454;28;20505;-68
2021/12/18 00:40:00;;;;;;;47.03;20.35;;;;;;;0.86;100.00;98518.19;4941228;28;20043;-69
2021/12/18 00:45:08;;;;;;;47.42;19.52;;;;;;;0.97;100.00;98527.16;4927645;28;20225;-71
2021/12/18 00:47:34;;;;;;;48.88;20.58;;;;;;;0.91;100.00;98526.31;4934829;28;20035;-69
2021/12/18 00:49:59;;;;;;;48.63;19.30;;;;;;;0.92;100.00;98519.84;4910094;29;20171;-68
2021/12/18 00:52:24;;;;;;;48.67;20.92;;;;;;;0.87;100.00;98525.22;4921254;28;20696;-69
2021/12/18 00:54:51;;;;;;;48.15;19.02;;;;;;;0.90;100.00;98520.13;4927556;29;20055;-70
2021/12/18 00:57:16;;;;;;;48.28;20.40;;;;;;;0.86;100.00;98518.97;4930044;28;20074;-69
2021/12/18 00:59:42;;;;;;;51.15;20.25;;;;;;;0.91;100.00;98512.81;4942776;29;20043;-68
2021/12/18 01:02:07;;;;;;;50.35;20.75;;;;;;;0.90;100.00;98511.19;4927936;28;20051;-68
2021/12/18 01:04:33;;;;;;;47.72;19.92;;;;;;;0.86;100.00;98513.59;4929852;28;20043;-68
2021/12/18 01:06:59;;;;;;;42.35;18.20;;;;;;;0.83;100.00;98511.44;4929038;28;20568;-69
2021/12/18 01:09:41;;;;;;;48.30;21.13;;;;;;;0.81;100.00;98513.56;4927960;29;20281;-67
2021/12/18 01:12:07;;;;;;;49.08;19.00;;;;;;;0.89;100.00;98515.78;4932472;28;20050;-67
2021/12/18 01:25:02;;;;;;;53.17;21.10;;;;;;;0.72;100.00;98524.03;4931785;28;20047;-70
2021/12/18 01:27:30;;;;;;;50.22;22.27;;;;;;;0.74;100.00;98529.16;4930393;28;20051;-67
2021/12/18 01:29:55;;;;;;;47.75;20.50;;;;;;;0.73;100.00;98522.13;4937454;28;20500;-67
2021/12/18 01:32:21;;;;;;;51.08;20.92;;;;;;;0.68;100.00;98528.28;4929129;28;20051;-68
2021/12/18 01:34:46;;;;;;;51.22;20.55;;;;;;;0.70;100.00;98525.34;4935804;28;20039;-69
2021/12/18 01:37:11;;;;;;;50.50;20.98;;;;;;;0.66;100.00;98513.44;4930315;28;20044;-69
2021/12/18 01:39:37;;;;;;;55.22;23.63;;;;;;;0.66;100.00;98506.16;4929549;28;20051;-68
2021/12/18 01:42:44;;;;;;;49.97;19.67;;;;;;;0.71;100.00;98505.41;4932838;28;20122;-68
2021/12/18 01:53:11;;;;;;;53.35;21.60;;;;;;;0.63;100.00;98513.94;4927575;28;20050;-68
2021/12/18 01:55:39;;;;;;;52.67;21.10;;;;;;;0.64;100.00;98507.50;4932869;28;20050;-68
2021/12/18 01:58:06;;;;;;;48.28;20.52;;;;;;;0.65;100.00;98506.41;4930217;28;20040;-67
2021/12/18 02:00:36;;;;;;;51.30;20.10;;;;;;;0.63;100.00;98504.00;4934777;28;20039;-67
2021/12/18 02:03:03;;;;;;;51.45;21.35;;;;;;;0.63;100.00;98506.69;4925477;28;20067;-68
2021/12/18 02:05:29;;;;;;;51.10;21.75;;;;;;;0.56;100.00;98506.09;4933209;29;20050;-68
2021/12/18 02:07:54;;;;;;;52.70;20.77;;;;;;;0.59;100.00;98510.16;4934304;28;20050;-68
2021/12/18 02:10:24;;;;;;;54.50;21.70;;;;;;;0.56;100.00;98504.19;4928623;28;20081;-67
2021/12/18 02:20:46;;;;;;;51.75;21.35;;;;;;;0.52;100.00;98504.97;4930270;28;20074;-67
2021/12/18 02:23:12;;;;;;;52.28;21.52;;;;;;;0.50;100.00;98502.50;4924955;28;20130;-68
2021/12/18 02:25:38;;;;;;;52.13;21.33;;;;;;;0.50;100.00;98507.09;4938176;28;20553;-66
2021/12/18 02:28:15;;;;;;;50.60;21.02;;;;;;;0.49;100.00;98498.22;4929255;29;20449;-69
2021/12/18 02:30:41;;;;;;;51.15;21.27;;;;;;;0.51;100.00;98497.97;4925905;29;20039;-67
2021/12/18 02:33:07;;;;;;;54.53;21.50;;;;;;;0.56;100.00;98504.19;4928103;28;20056;-67
2021/12/18 02:35:39;;;;;;;53.25;20.67;;;;;;;0.49;100.00;98495.50;4927975;28;20087;-68
2021/12/18 02:38:10;;;;;;;50.00;20.50;;;;;;;0.47;100.00;98496.81;4924332;28;20067;-70
2021/12/18 02:43:23;;;;;;;53.83;22.17;;;;;;;0.42;100.00;98505.69;4932305;28;20582;-68
2021/12/18 02:45:53;;;;;;;;;;;;;;;0.42;100.00;98494.13;4936304;28;20040;-68
2021/12/18 02:48:19;;;;;;;54.70;21.45;;;;;;;0.45;100.00;98501.66;4922567;29;19918;-68
2021/12/18 02:50:44;;;;;;;55.03;20.92;;;;;;;0.43;100.00;98503.81;4930572;28;20091;-67
2021/12/18 02:53:09;;;;;;;57.05;23.85;;;;;;;0.43;100.00;98493.03;4926544;28;20119;-68
2021/12/18 02:55:35;;;;;;;50.67;20.45;;;;;;;0.42;100.00;98503.00;4940837;28;20054;-68
2021/12/18 02:58:00;;;;;;;52.17;22.45;;;;;;;0.42;100.00;98494.13;4933628;29;20039;-69
2021/12/18 03:00:27;;;;;;;54.10;22.17;;;;;;;0.37;100.00;98489.47;4926480;28;20618;-68
2021/12/18 03:02:53;;;;;;;54.95;20.45;;;;;;;0.42;100.00;98494.13;4924473;28;20043;-67
2021/12/18 03:05:25;;;;;;;57.55;21.85;;;;;;;0.35;100.00;98494.31;4927724;28;20412;-69
2021/12/18 03:07:58;;;;;;;53.60;22.50;;;;;;;0.34;100.00;98493.50;4934083;28;20078;-69
2021/12/18 03:19:13;;;;;;;49.42;20.38;;;;;;;0.28;100.00;98493.72;4929395;28;20055;-70
2021/12/18 03:24:43;;;;;;;52.60;22.42;;;;;;;0.30;100.00;98505.03;4919924;28;20071;-68
2021/12/18 03:27:08;;;;;;;56.13;21.48;;;;;;;0.24;100.00;98501.50;4929406;28;20189;-69
2021/12/18 03:29:34;;;;;;;54.05;22.42;;;;;;;0.24;100.00;98501.50;4932111;28;20044;-68
2021/12/18 03:32:00;;;;;;;57.90;22.42;;;;;;;0.26;100.00;98482.38;4918773;29;20044;-68
2021/12/18 03:34:25;;;;;;;56.95;24.52;;;;;;;0.24;100.00;98495.28;4916244;28;20114;-68
2021/12/18 03:36:52;;;;;;;55.03;22.77;;;;;;;0.25;100.00;98489.63;4935105;28;20046;-68
2021/12/18 03:39:17;;;;;;;54.92;23.48;;;;;;;0.25;100.00;98486.94;4933162;28;20126;-67
2021/12/18 03:41:44;;;;;;;52.53;23.35;;;;;;;0.25;100.00;98494.22;4933268;28;20135;-69
2021/12/18 03:44:09;;;;;;;52.28;21.52;;;;;;;0.25;100.00;98488.81;4938658;28;20896;-68
2021/12/18 03:46:35;;;;;;;56.67;22.77;;;;;;;0.23;100.00;98496.34;4926151;28;20048;-69
2021/12/18 03:49:00;;;;;;;54.47;22.42;;;;;;;0.21;100.00;98493.91;4927932;28;20044;-69
2021/12/18 03:51:26;;;;;;;52.10;21.88;;;;;;;0.22;100.00;98462.38;4924072;28;20055;-69
2021/12/18 03:53:51;;;;;;;55.15;21.85;;;;;;;0.24;100.00;98485.31;4932819;28;20075;-68
2021/12/18 03:56:17;;;;;;;62.22;26.08;;;;;;;0.19;100.00;98472.59;4923490;29;20130;-67
2021/12/18 03:58:43;;;;;;;54.35;24.60;;;;;;;0.20;100.00;98476.13;4932745;28;20042;-69
2021/12/18 04:01:08;;;;;;;60.55;24.83;;;;;;;0.20;100.00;98478.81;4936124;28;20129;-66
2021/12/18 04:03:34;;;;;;;52.38;22.98;;;;;;;0.22;100.00;98478.53;4933189;28;20043;-67
2021/12/18 04:05:59;;;;;;;56.17;23.20;;;;;;;0.25;100.00;98481.53;4939475;28;20560;-69
2021/12/18 04:08:25;;;;;;;59.45;24.58;;;;;;;0.22;100.00;98473.16;4922069;29;20126;-68
2021/12/18 04:10:50;;;;;;;56.20;22.45;;;;;;;0.28;100.00;98477.53;4942760;29;20047;-67
2021/12/18 04:13:16;;;;;;;57.13;22.90;;;;;;;0.40;100.00;98477.34;4928545;28;20051;-67
2021/12/18 04:15:41;;;;;;;61.15;25.48;;;;;;;0.15;100.00;98470.69;4931521;28;20126;-67
2021/12/18 04:18:07;;;;;;;54.40;21.80;;;;;;;0.19;100.00;98478.00;4922489;28;20043;-67
2021/12/18 04:20:33;;;;;;;54.88;23.15;;;;;;;0.13;100.00;98467.44;4936027;28;20446;-65
2021/12/18 04:22:58;;;;;;;58.78;23.20;;;;;;;0.11;100.00;98474.94;4931522;28;20069;-68
2021/12/18 04:25:24;;;;;;;57.47;24.13;;;;;;;0.12;100.00;98479.28;4928709;28;20048;-69
2021/12/18 04:27:49;;;;;;;57.05;23.63;;;;;;;0.13;100.00;98484.41;4929490;29;20051;-69
2021/12/18 04:30:15;;;;;;;54.95;24.15;;;;;;;0.12;100.00;98474.69;4921294;29;20462;-68
2021/12/18 04:32:41;;;;;;;55.33;23.83;;;;;;;0.16;100.00;98478.53;4929241;29;20055;-68
2021/12/18 04:35:07;;;;;;;59.25;24.70;;;;;;;0.07;100.00;98468.44;4931898;28;20544;-67
2021/12/18 04:37:33;;;;;;;61.35;24.08;;;;;;;0.07;100.00;98468.44;4933020;29;20138;-67
2021/12/18 04:39:58;;;;;;;53.28;23.90;;;;;;;0.11;100.00;98470.38;4934596;28;20127;-68
2021/12/18 04:42:24;;;;;;;54.33;23.40;;;;;;;0.05;100.00;98471.38;4927602;29;20231;-67
2021/12/18 04:44:49;;;;;;;54.17;24.17;;;;;;;0.04;100.00;98471.63;4927949;29;20050;-68
2021/12/18 04:47:15;;;;;;;51.83;22.70;;;;;;;0.06;100.00;98464.13;4930025;28;20043;-68
2021/12/18 04:49:41;;;;;;;53.33;24.10;;;;;;;0.02;100.00;98457.59;4929702;28;20485;-67
2021/12/18 04:52:07;;;;;;;53.15;21.52;;;;;;;0.02;100.00;98463.00;4921181;29;20079;-67
2021/12/18 04:54:32;;;;;;;54.33;23.10;;;;;;;-0.01;100.00;98464.34;4938066;29;20128;-67
2021/12/18 04:56:58;;;;;;;49.95;23.30;;;;;;;0.01;100.00;98464.88;4931754;28;20047;-66
2021/12/18 04:59:23;;;;;;;51.80;23.00;;;;;;;-0.01;100.00;98462.44;4933094;28;20468;-66
2021/12/18 05:01:51;;;;;;;55.15;22.08;;;;;;;-0.02;100.00;98470.78;4943667;28;20047;-68
2021/12/18 05:04:17;;;;;;;53.05;22.38;;;;;;;-0.04;100.00;98462.97;4928551;28;20047;-69
2021/12/18 05:06:46;;;;;;;50.13;21.00;;;;;;;-0.04;100.00;98464.84;4926759;29;20040;-67
2021/12/18 05:09:14;;;;;;;48.78;20.33;;;;;;;-0.02;100.00;98463.53;4934989;28;20111;-69
2021/12/18 05:11:41;;;;;;;56.80;24.17;;;;;;;-0.07;100.00;98465.38;4937548;28;20044;-67
2021/12/18 05:14:07;;;;;;;50.38;20.55;;;;;;;-0.07;100.00;98466.16;4923317;29;20075;-69
2021/12/18 05:16:32;;;;;;;50.22;20.75;;;;;;;-0.06;100.00;98451.63;4928192;29;20047;-67
2021/12/18 05:18:58;;;;;;;52.53;22.75;;;;;;;-0.06;100.00;98457.00;4935606;28;20466;-68
2021/12/18 05:21:23;;;;;;;49.67;20.83;;;;;;;-0.06;100.00;98454.31;4923815;29;20051;-67
2021/12/18 05:23:49;;;;;;;46.95;19.75;;;;;;;-0.07;100.00;98460.78;4935071;29;20115;-67
2021/12/18 05:26:15;;;;;;;51.90;21.63;;;;;;;-0.07;100.00;98460.78;4932507;28;20513;-68
2021/12/18 05:28:41;;;;;;;50.17;21.40;;;;;;;-0.08;100.00;98464.53;4936706;28;20047;-66
2021/12/18 05:31:09;;;;;;;51.45;22.27;;;;;;;-0.06;100.00;98461.59;4936409;28;20050;-68
2021/12/18 05:33:35;;;;;;;50.55;22.08;;;;;;;-0.01;100.00;98464.34;4936100;28;20047;-66
2021/12/18 05:36:00;;;;;;;50.60;21.20;;;;;;;-0.05;100.00;98469.41;4935860;28;20044;-68
2021/12/18 05:38:26;;;;;;;52.85;21.83;;;;;;;-0.13;100.00;98464.47;4924837;28;20059;-68
2021/12/18 05:40:51;;;;;;;50.28;23.10;;;;;;;-0.04;100.00;98468.38;4930017;29;20098;-66
2021/12/18 05:43:17;;;;;;;49.80;23.30;;;;;;;-0.10;100.00;98465.88;4937811;28;20173;-67
2021/12/18 05:45:42;;;;;;;46.60;20.75;;;;;;;-0.06;100.00;98475.06;4925215;29;20505;-68
2021/12/18 05:48:08;;;;;;;54.30;23.30;;;;;;;-0.16;100.00;98466.84;4917996;29;20048;-67
2021/12/18 05:50:34;;;;;;;52.30;20.58;;;;;;;-0.15;100.00;98476.56;4938070;28;20050;-67
2021/12/18 05:53:00;;;;;;;50.67;21.50;;;;;;;-0.21;100.00;98473.03;4932430;28;20039;-69
2021/12/18 05:55:27;;;;;;;51.25;20.70;;;;;;;-0.18;100.00;98482.47;4932596;29;20043;-68
2021/12/18 05:57:53;;;;;;;54.25;21.58;;;;;;;-0.22;100.00;98477.59;4943437;28;20047;-67
2021/12/18 06:00:19;;;;;;;55.72;23.90;;;;;;;-0.21;100.00;98478.41;4935923;28;20046;-69
2021/12/18 06:02:45;;;;;;;54.33;22.33;;;;;;;-0.21;100.00;98494.56;4925226;28;20485;-68
2021/12/18 06:05:10;;;;;;;50.28;22.10;;;;;;;-0.17;100.00;98492.19;4918419;29;20122;-69
2021/12/18 06:07:57;;;;;;;52.75;23.30;;;;;;;-0.27;100.00;98493.69;4924747;29;20050;-68
2021/12/18 06:10:25;;;;;;;56.35;23.85;;;;;;;-0.30;100.00;98480.72;4920919;29;20053;-68
2021/12/18 06:12:51;;;;;;;54.55;22.55;;;;;;;-0.29;100.00;98489.63;4926923;29;20044;-70
2021/12/18 06:15:17;;;;;;;57.30;22.42;;;;;;;-0.25;100.00;98483.47;4924302;28;20050;-68
2021/12/18 06:17:43;;;;;;;50.70;22.92;;;;;;;-0.29;100.00;98489.63;4927577;28;20055;-67
2021/12/18 06:20:09;;;;;;;55.60;22.70;;;;;;;-0.29;100.00;98485.06;4920398;28;20040;-68
2021/12/18 06:22:35;;;;;;;54.17;20.80;;;;;;;-0.28;100.00;98489.38;4939680;28;20047;-68
2021/12/18 06:25:00;;;;;;;54.70;23.38;;;;;;;-0.31;100.00;98492.56;4925171;29;20051;-68
2021/12/18 06:27:25;;;;;;;51.80;21.00;;;;;;;-0.31;100.00;98489.84;4922732;29;20043;-68
2021/12/18 06:29:51;;;;;;;53.70;23.67;;;;;;;-0.34;100.00;98492.25;4930303;28;20409;-68
2021/12/18 06:32:16;;;;;;;56.92;22.90;;;;;;;-0.35;100.00;98491.44;4925224;29;20052;-67
2021/12/18 06:34:41;;;;;;;50.72;22.05;;;;;;;-0.32;100.00;98492.84;4934513;28;20056;-68
2021/12/18 06:37:07;;;;;;;57.13;22.98;;;;;;;-0.31;100.00;98492.56;4919427;29;20511;-68
2021/12/18 06:39:32;;;;;;;58.75;24.20;;;;;;;-0.33;100.00;98489.31;4934937;28;20156;-67
2021/12/18 06:41:58;;;;;;;53.83;23.67;;;;;;;-0.32;100.00;98482.88;4923927;29;20046;-69
2021/12/18 06:44:23;;;;;;;55.80;22.08;;;;;;;-0.33;100.00;98483.91;4924423;28;20500;-67
2021/12/18 06:46:49;;;;;;;53.70;23.88;;;;;;;-0.34;100.00;98476.91;4931726;28;20089;-67
2021/12/18 06:49:14;;;;;;;55.58;22.55;;;;;;;-0.34;100.00;98481.47;4937372;28;20094;-68
2021/12/18 06:51:40;;;;;;;54.83;22.30;;;;;;;-0.34;100.00;98487.69;4933925;28;20043;-67
2021/12/18 06:54:05;;;;;;;61.05;23.00;;;;;;;-0.34;100.00;98490.38;4921307;29;20067;-66
2021/12/18 06:56:31;;;;;;;58.55;23.35;;;;;;;-0.35;100.00;98488.75;4935263;28;20061;-67
2021/12/18 06:58:56;;;;;;;52.50;23.58;;;;;;;-0.34;100.00;98479.63;4930615;28;20058;-71
2021/12/18 07:01:22;;;;;;;57.20;22.05;;;;;;;-0.33;100.00;98483.09;4920241;29;20040;-68
2021/12/18 07:03:47;;;;;;;55.10;22.73;;;;;;;-0.35;100.00;98485.25;4926254;29;20083;-67
2021/12/18 07:06:13;;;;;;;55.10;22.25;;;;;;;-0.33;100.00;98493.88;4925657;28;20510;-68
2021/12/18 07:08:39;;;;;;;56.97;21.98;;;;;;;-0.32;100.00;98490.13;4933901;28;20039;-71
2021/12/18 07:11:04;;;;;;;58.05;22.65;;;;;;;-0.33;100.00;98491.19;4929299;29;20040;-70
2021/12/18 07:13:29;;;;;;;58.97;22.30;;;;;;;-0.35;100.00;98493.31;4939078;28;20106;-68
2021/12/18 07:15:55;;;;;;;58.42;23.17;;;;;;;-0.36;100.00;98494.38;4930097;28;20103;-69
2021/12/18 07:18:21;;;;;;;58.78;23.63;;;;;;;-0.35;100.00;98493.31;4922948;29;20681;-69
2021/12/18 07:20:46;;;;;;;59.28;22.77;;;;;;;-0.34;100.00;98490.38;4935497;28;20455;-67
2021/12/18 07:23:12;;;;;;;55.15;22.15;;;;;;;-0.41;100.00;98492.44;4925034;28;20047;-69
2021/12/18 07:25:37;;;;;;;55.50;21.27;;;;;;;-0.41;100.00;98495.16;4930303;29;20070;-70
2021/12/18 07:28:03;;;;;;;54.92;21.95;;;;;;;-0.34;100.00;98503.00;4941723;28;20073;-70
2021/12/18 07:30:29;;;;;;;55.90;21.65;;;;;;;-0.30;100.00;98502.28;4942514;28;20122;-67
2021/12/18 07:32:54;;;;;;;63.13;23.48;;;;;;;-0.35;100.00;98506.78;4946924;28;20134;-68
2021/12/18 07:35:19;;;;;;;58.65;22.75;;;;;;;-0.33;100.00;98501.97;4925010;28;20048;-68
2021/12/18 07:37:45;;;;;;;58.22;20.60;;;;;;;-0.33;100.00;98504.66;4933145;28;20677;-67
2021/12/18 07:40:11;;;;;;;52.42;19.25;;;;;;;-0.25;100.00;98504.22;4930706;28;20036;-67
2021/12/18 07:42:37;;;;;;;53.28;22.40;;;;;;;-0.35;100.00;98507.59;4937979;28;20548;-67
2021/12/18 07:45:04;;;;;;;50.88;21.75;;;;;;;-0.47;100.00;98501.50;4936203;28;20130;-67
2021/12/18 07:47:30;;;;;;;57.80;22.38;;;;;;;-0.53;100.00;98514.09;4929004;29;20048;-67
2021/12/18 07:49:55;;;;;;;55.85;21.83;;;;;;;-0.52;100.00;98501.44;4935724;29;20106;-68
2021/12/18 07:52:21;;;;;;;58.60;23.67;;;;;;;-0.58;100.00;98503.25;4934424;29;20064;-67
2021/12/18 07:54:47;;;;;;;56.50;22.75;;;;;;;-0.55;100.00;98510.84;4939232;29;20043;-69
2021/12/18 07:57:13;;;;;;;51.70;19.65;;;;;;;-0.51;100.00;98511.97;4926944;29;20462;-69
2021/12/18 07:59:39;;;;;;;55.75;20.38;;;;;;;-0.54;100.00;98514.34;4944151;28;20067;-69
2021/12/18 08:02:05;;;;;;;60.85;21.55;;;;;;;-0.52;100.00;98507.66;4924691;29;20125;-69
2021/12/18 08:04:32;;;;;;;55.88;20.98;;;;;;;-0.53;100.00;98500.63;4929674;29;20124;-68
2021/12/18 08:06:58;;;;;;;53.40;20.60;;;;;;;-0.54;100.00;98499.03;4928606;29;20383;-68
2021/12/18 08:09:23;;;;;;;54.90;21.52;;;;;;;-0.51;100.00;98508.47;4922379;29;20071;-69
2021/12/18 08:11:48;;;;;;;55.85;21.35;;;;;;;-0.53;100.00;98503.34;4929916;29;20044;-69
2021/12/18 08:14:14;;;;;;;58.78;21.52;;;;;;;-0.54;100.00;98517.03;4927338;28;20055;-67
2021/12/18 08:16:39;;;;;;;57.08;20.67;;;;;;;-0.50;100.00;98510.91;4931686;29;20864;-70
2021/12/18 08:19:04;;;;;;;95.43;37.65;;;;;;;-0.49;100.00;98517.09;4935273;28;20062;-70
2021/12/18 08:21:30;;;;;;;60.90;21.52;;;;;;;-0.43;100.00;98524.19;4927584;28;20138;-69
2021/12/18 08:23:55;;;;;;;64.75;26.83;;;;;;;-0.45;100.00;98519.06;4936088;28;20481;-69
2021/12/18 08:26:21;;;;;;;61.97;25.27;;;;;;;-0.44;100.00;98515.28;4929140;28;21538;-69
2021/12/18 08:28:46;;;;;;;59.67;23.85;;;;;;;-0.42;100.00;98517.72;4933442;29;20119;-70
2021/12/18 08:31:12;;;;;;;61.13;22.48;;;;;;;-0.42;100.00;98510.47;4929901;28;20062;-68
2021/12/18 08:33:37;;;;;;;53.35;20.73;;;;;;;-0.35;100.00;98512.97;4936277;28;20043;-67
2021/12/18 08:36:03;;;;;;;59.25;23.38;;;;;;;-0.36;100.00;98515.91;4923202;29;20040;-69
2021/12/18 08:38:28;;;;;;;68.78;28.45;;;;;;;-0.35;100.00;98512.97;4942040;28;20213;-68
2021/12/18 08:40:54;;;;;;;61.28;23.42;;;;;;;-0.33;100.00;98527.00;4939769;28;20130;-67
2021/12/18 08:43:20;;;;;;;74.15;33.58;;;;;;;-0.34;100.00;98517.31;4940064;28;20425;-68
2021/12/18 08:45:45;;;;;;;65.97;31.77;;;;;;;-0.29;100.00;98517.38;4935291;28;20134;-68
2021/12/18 08:48:11;;;;;;;52.00;19.13;;;;;;;-0.17;100.00;98514.53;4923346;28;20048;-67
2021/12/18 08:50:36;;;;;;;55.72;19.98;;;;;;;-0.17;100.00;98516.41;4925328;29;20040;-68
2021/12/18 08:53:02;;;;;;;54.55;21.73;;;;;;;-0.03;100.00;98523.84;4939191;28;20072;-69
2021/12/18 08:55:28;;;;;;;59.50;20.60;;;;;;;-0.12;100.00;98511.09;4932370;29;20094;-69
2021/12/18 08:57:54;;;;;;;50.88;18.70;;;;;;;0.09;100.00;98507.56;4930643;28;20048;-69
2021/12/18 09:00:23;;;;;;;47.95;16.48;;;;;;;-0.03;100.00;98506.88;4919178;29;20552;-70
2021/12/18 09:02:52;;;;;;;48.38;17.20;;;;;;;0.06;100.00;98518.81;4926006;29;20047;-69
2021/12/18 09:05:17;;;;;;;43.25;16.33;;;;;;;0.05;100.00;98511.81;4920893;29;20055;-69
2021/12/18 09:07:43;;;;;;;40.13;13.73;;;;;;;-0.04;100.00;98503.38;4926506;29;20047;-68
2021/12/18 09:10:12;;;;;;;47.28;18.63;;;;;;;0.12;100.00;98509.72;4919336;29;20201;-67
2021/12/18 09:12:37;;;;;;;44.00;15.95;;;;;;;-0.05;100.00;98512.50;4926512;29;20129;-69
2021/12/18 09:15:03;;;;;;;44.22;16.33;;;;;;;-0.36;100.00;98519.44;4923559;28;20077;-68
2021/12/18 09:17:29;;;;;;;47.58;20.30;;;;;;;-0.33;100.00;98518.91;4924277;29;20519;-68
2021/12/18 09:19:55;;;;;;;41.85;17.33;;;;;;;-0.30;100.00;98507.66;4926259;29;20051;-67
2021/12/18 09:22:22;;;;;;;47.13;17.98;;;;;;;-0.26;100.00;98513.34;4912679;29;20107;-67
2021/12/18 09:24:47;;;;;;;43.55;19.38;;;;;;;-0.26;100.00;98507.97;4921011;29;20048;-67
2021/12/18 09:27:15;;;;;;;44.25;16.63;;;;;;;-0.26;100.00;98505.28;4919836;28;20059;-68
2021/12/18 09:29:41;;;;;;;44.28;17.35;;;;;;;-0.26;100.00;98507.97;4925561;28;20043;-68
2021/12/18 09:32:06;;;;;;;39.80;14.75;;;;;;;-0.25;100.00;98502.34;4919761;28;20083;-68
2021/12/18 09:34:33;;;;;;;44.58;17.05;;;;;;;-0.30;100.00;98504.16;4924464;29;20044;-69
2021/12/18 09:36:59;;;;;;;42.97;18.30;;;;;;;-0.36;100.00;98505.16;4924990;28;20054;-68
2021/12/18 09:39:25;;;;;;;42.65;17.98;;;;;;;-0.30;100.00;98504.16;4917500;29;20079;-67
2021/12/18 09:41:51;;;;;;;43.05;16.50;;;;;;;-0.33;100.00;98496.56;4923517;29;20047;-67
2021/12/18 09:44:29;;;;;;;41.80;15.20;;;;;;;-0.41;100.00;98495.94;4919785;29;20055;-68
2021/12/18 09:46:55;;;;;;;41.95;16.27;;;;;;;-0.33;100.00;98502.75;4924552;29;20047;-69
2021/12/18 09:49:21;;;;;;;39.38;14.73;;;;;;;-0.16;100.00;98502.69;4920392;29;20039;-70
2021/12/18 09:51:47;;;;;;;46.20;17.08;;;;;;;-0.16;100.00;98502.69;4924757;29;20137;-68
2021/12/18 09:54:13;;;;;;;42.60;15.77;;;;;;;0.01;100.00;98494.53;4921107;28;20055;-70
2021/12/18 09:56:39;;;;;;;41.03;16.02;;;;;;;-0.28;100.00;98492.06;4926220;28;20047;-70
2021/12/18 09:59:05;;;;;;;42.30;15.15;;;;;;;-0.26;100.00;98494.50;4921880;29;20055;-73
2021/12/18 10:01:32;;;;;;;42.17;15.93;;;;;;;-0.13;100.00;98498.69;4929581;28;20050;-68
2021/12/18 10:04:00;;;;;;;39.03;16.80;;;;;;;-0.14;100.00;98487.09;4924767;29;20134;-69
2021/12/18 10:06:43;;;;;;;39.17;14.40;;;;;;;0.07;100.00;98490.78;4919694;29;20932;-68
2021/12/18 10:09:13;;;;;;;37.58;15.80;;;;;;;-0.01;100.00;98481.31;4917614;29;20074;-69
2021/12/18 10:11:51;;;;;;;37.92;16.13;;;;;;;-0.05;100.00;98479.38;4924440;29;20040;-68
2021/12/18 10:14:19;;;;;;;35.58;13.80;;;;;;;-0.14;100.00;98468.25;4918528;28;20047;-68
2021/12/18 10:16:49;;;;;;;39.53;15.65;;;;;;;-0.06;100.00;98470.47;4922713;29;20039;-67
2021/12/18 10:19:35;;;;;;;38.42;16.30;;;;;;;-0.02;100.00;98465.38;4918462;28;20386;-66
2021/12/18 10:22:06;;;;;;;34.55;13.23;;;;;;;-0.04;100.00;98460.28;4924540;29;20071;-69
2021/12/18 10:24:35;;;;;;;40.22;16.42;;;;;;;0.10;100.00;98457.16;4923321;28;20053;-69
2021/12/18 10:27:14;;;;;;;40.67;16.90;;;;;;;0.13;100.00;98454.78;4923793;29;20497;-67
2021/12/18 10:29:40;;;;;;;37.97;15.05;;;;;;;0.04;100.00;98458.16;4923792;28;20378;-66
2021/12/18 10:32:13;;;;;;;38.08;18.58;;;;;;;-0.13;100.00;98445.63;4916748;28;20047;-67
2021/12/18 10:34:41;;;;;;;37.55;15.07;;;;;;;0.04;100.00;98452.78;4923098;29;20056;-68
2021/12/18 10:37:20;;;;;;;32.08;14.23;;;;;;;0.17;100.00;98450.50;4918575;29;20039;-68
2021/12/18 10:39:59;;;;;;;39.60;18.43;;;;;;;-0.02;100.00;98444.66;4922699;29;20039;-67
2021/12/18 10:42:39;;;;;;;37.92;17.65;;;;;;;0.01;100.00;98443.34;4916400;29;20051;-68
2021/12/18 10:45:12;;;;;;;35.85;14.23;;;;;;;-0.08;100.00;98431.41;4897616;29;20044;-70
2021/12/18 10:47:49;;;;;;;35.80;14.93;;;;;;;-0.16;100.00;98437.22;4931223;29;20122;-68
2021/12/18 10:50:38;;;;;;;38.22;13.23;;;;;;;0.13;100.00;98443.19;4927290;29;20056;-67
2021/12/18 10:53:14;;;;;;;29.80;12.50;;;;;;;0.04;100.00;98431.22;4909493;29;20043;-69
2021/12/18 10:55:45;;;;;;;35.10;13.93;;;;;;;0.05;100.00;98430.97;4931664;29;20043;-67
2021/12/18 10:58:13;;;;;;;27.83;11.55;;;;;;;0.09;100.00;98431.28;4927727;29;20046;-66
2021/12/18 11:00:46;;;;;;;29.67;11.20;;;;;;;0.26;100.00;98431.97;4926864;29;20526;-69
2021/12/18 11:03:26;;;;;;;36.85;13.77;;;;;;;0.48;100.00;98429.16;4920354;29;20047;-67
2021/12/18 11:06:02;;;;;;;32.45;13.10;;;;;;;0.40;100.00;98418.03;4924249;29;20071;-68
2021/12/18 11:08:27;;;;;;;31.25;13.15;;;;;;;0.33;100.00;98412.91;4920971;29;20103;-67
2021/12/18 11:13:38;;;;;;;28.88;12.77;;;;;;;0.39;100.00;98406.47;4922673;29;20498;-68
2021/12/18 11:13:48;;;;;;;30.13;12.45;;;;;;;0.40;100.00;98402.72;4925624;29;20051;-67
2021/12/18 11:16:16;;;;;;;33.85;15.00;;;;;;;0.50;100.00;98410.03;4918329;29;20043;-68
2021/12/18 11:18:41;;;;;;;35.08;14.02;;;;;;;0.56;100.00;98399.03;4923288;29;20039;-69
2021/12/18 11:21:08;;;;;;;29.00;12.52;;;;;;;0.49;100.00;98390.38;4918899;29;20078;-68
2021/12/18 11:23:43;;;;;;;32.70;13.77;;;;;;;0.78;100.00;98394.59;4932572;29;20111;-67
2021/12/18 11:26:12;;;;;;;32.10;13.45;;;;;;;0.80;100.00;98389.75;4918252;29;20115;-68
2021/12/18 11:28:43;;;;;;;30.63;13.75;;;;;;;0.68;100.00;98384.53;4924792;29;20068;-67
2021/12/18 11:31:09;;;;;;;31.67;13.40;;;;;;;0.67;100.00;98382.94;4918509;29;20143;-68
2021/12/18 11:33:35;;;;;;;30.00;13.57;;;;;;;0.38;100.00;98378.69;4924096;29;20044;-69
2021/12/18 11:36:03;;;;;;;28.27;12.40;;;;;;;0.43;100.00;98372.50;4923486;29;20099;-69
2021/12/18 11:38:30;;;;;;;23.50;9.60;;;;;;;0.42;100.00;98380.88;4918948;29;20046;-68
2021/12/18 11:40:56;;;;;;;27.83;12.57;;;;;;;0.49;100.00;98370.69;4922526;29;20058;-69
2021/12/18 11:43:37;;;;;;;28.23;11.73;;;;;;;0.53;100.00;98380.69;4916948;29;20794;-70
2021/12/18 11:46:31;;;;;;;30.27;11.52;;;;;;;0.26;100.00;98361.09;4920949;28;20501;-71
2021/12/18 11:49:00;;;;;;;28.50;12.25;;;;;;;0.24;100.00;98372.13;4917636;29;20049;-71
2021/12/18 11:51:26;;;;;;;30.13;12.50;;;;;;;0.19;100.00;98367.50;4918337;29;20128;-69
2021/12/18 11:53:52;;;;;;;26.42;10.68;;;;;;;0.20;100.00;98362.94;4923008;29;20060;-69
2021/12/18 11:56:18;;;;;;;28.17;11.93;;;;;;;0.30;100.00;98359.50;4920045;29;20536;-68
2021/12/18 11:58:46;;;;;;;26.02;12.23;;;;;;;0.39;100.00;98357.94;4927136;29;20043;-69